Time;durP1;ratioP1;P1;durP2;ratioP2;P2;SDS_P1;SDS_P2;PMS_P1;PMS_P2;Temp;Humidity;BMP_temperature;BMP_pressure;BME280_temperature;BME280_humidity;BME280_pressure;Samples;Min_cycle;Max_cycle;Signal;HPM_P1;HPM_P2
2021/01/18 00:02:07;;;;;;;0.20;0.20;;;;;;;1.70;100.00;100591.41;4947741;28;20712;-77
2021/01/18 00:05:11;;;;;;;0.20;0.20;;;;;;;1.72;100.00;100584.34;4946082;28;20225;-77
2021/01/18 00:08:14;;;;;;;0.20;0.20;;;;;;;1.83;100.00;100584.28;4948382;28;20144;-76
2021/01/18 00:11:20;;;;;;;0.20;0.20;;;;;;;1.98;100.00;100585.78;4947575;28;21138;-77
2021/01/18 00:14:23;;;;;;;0.10;0.10;;;;;;;2.04;100.00;100578.69;4947666;28;20282;-78
2021/01/18 00:17:27;;;;;;;0.20;0.20;;;;;;;2.13;100.00;100582.59;4944827;28;20120;-79
2021/01/18 00:20:31;;;;;;;0.20;0.20;;;;;;;2.17;100.00;100572.34;4945370;28;20065;-78
2021/01/18 00:23:44;;;;;;;0.10;0.10;;;;;;;2.19;100.00;100566.44;4948183;28;20046;-78
2021/01/18 00:26:48;;;;;;;0.20;0.20;;;;;;;2.29;100.00;100565.63;4941625;28;20552;-79
2021/01/18 00:29:51;;;;;;;0.20;0.20;;;;;;;2.33;100.00;100558.13;4944667;28;20087;-78
2021/01/18 00:32:58;;;;;;;0.10;0.10;;;;;;;2.40;100.00;100563.59;4944134;28;20045;-78
2021/01/18 00:36:03;;;;;;;0.20;0.20;;;;;;;2.48;100.00;100551.34;4954859;28;20273;-78
2021/01/18 00:39:07;;;;;;;0.10;0.10;;;;;;;2.52;100.00;100543.84;4945483;28;20050;-78
2021/01/18 00:42:17;;;;;;;0.10;0.10;;;;;;;2.53;100.00;100539.94;4950502;28;21111;-78
2021/01/18 00:45:22;;;;;;;0.10;0.10;;;;;;;2.54;100.00;100533.22;4945121;28;20402;-78
2021/01/18 00:48:25;;;;;;;0.10;0.10;;;;;;;2.62;100.00;100525.72;4943264;28;20236;-77
2021/01/18 00:51:37;;;;;;;0.20;0.20;;;;;;;2.65;100.00;100531.19;4945664;28;20058;-78
2021/01/18 00:54:42;;;;;;;0.10;0.10;;;;;;;2.60;100.00;100522.59;4935533;28;20043;-77
2021/01/18 00:57:46;;;;;;;0.20;0.20;;;;;;;2.59;100.00;100516.31;4934804;28;20259;-77
2021/01/18 01:00:50;;;;;;;0.20;0.20;;;;;;;2.59;100.00;100516.31;4929522;28;20061;-77
2021/01/18 01:03:53;;;;;;;0.10;0.10;;;;;;;2.55;100.00;100512.81;4925919;28;20368;-78
2021/01/18 01:06:57;;;;;;;0.10;0.10;;;;;;;2.52;100.00;100510.09;4953087;28;20041;-78
2021/01/18 01:10:01;;;;;;;0.20;0.20;;;;;;;2.53;100.00;100509.69;4945252;28;20441;-77
2021/01/18 01:13:07;;;;;;;0.10;0.10;;;;;;;2.53;100.00;100504.19;4943086;28;20236;-77
2021/01/18 01:16:11;;;;;;;0.10;0.10;;;;;;;2.43;100.00;100512.50;4945270;28;20041;-77
2021/01/18 01:19:14;;;;;;;0.10;0.10;;;;;;;2.28;100.00;100507.13;4956155;28;20449;-76
2021/01/18 01:22:18;;;;;;;0.10;0.10;;;;;;;2.13;100.00;100505.66;4943964;28;20470;-76
2021/01/18 01:25:24;;;;;;;0.10;0.10;;;;;;;1.98;100.00;100497.91;4943862;28;20042;-76
2021/01/18 01:28:28;;;;;;;0.10;0.00;;;;;;;1.84;100.00;100487.78;4949742;28;20635;-78
2021/01/18 01:31:32;;;;;;;0.10;0.10;;;;;;;1.67;100.00;100487.91;4947800;28;20042;-77
2021/01/18 01:34:36;;;;;;;0.10;0.10;;;;;;;1.56;100.00;100493.41;4946948;28;20077;-76
2021/01/18 01:37:40;;;;;;;0.20;0.20;;;;;;;1.56;100.00;100492.66;4948530;28;20306;-77
2021/01/18 01:40:43;;;;;;;0.20;0.20;;;;;;;1.59;100.00;100487.13;4947502;28;20212;-76
2021/01/18 01:43:47;;;;;;;0.10;0.10;;;;;;;1.57;100.00;100484.00;4947328;28;20041;-76
2021/01/18 01:46:51;;;;;;;0.20;0.20;;;;;;;1.57;100.00;100484.00;4949608;28;20042;-76
2021/01/18 01:49:55;;;;;;;0.20;0.20;;;;;;;1.60;100.00;100476.94;4947424;28;20050;-78
2021/01/18 01:53:14;;;;;;;0.20;0.20;;;;;;;1.59;100.00;100486.34;4947006;28;20049;-76
2021/01/18 01:56:18;;;;;;;0.10;0.10;;;;;;;1.57;100.00;100480.47;4944277;28;20057;-77
2021/01/18 01:59:22;;;;;;;0.10;0.10;;;;;;;1.54;100.00;100482.84;4949103;28;20042;-78
2021/01/18 02:02:25;;;;;;;0.10;0.10;;;;;;;1.52;100.00;100479.72;4950381;28;20071;-78
2021/01/18 02:05:29;;;;;;;0.17;0.17;;;;;;;1.44;100.00;100486.44;4947824;28;20065;-77
2021/01/18 02:08:33;;;;;;;0.30;0.30;;;;;;;1.35;100.00;100483.31;4947818;28;20053;-78
2021/01/18 02:11:37;;;;;;;0.10;0.10;;;;;;;1.28;100.00;100472.38;4947694;28;20245;-77
2021/01/18 02:14:52;;;;;;;0.10;0.10;;;;;;;1.16;100.00;100464.59;4947813;28;20050;-76
2021/01/18 02:18:22;;;;;;;0.20;0.20;;;;;;;1.03;100.00;100459.91;4946587;28;20131;-77
2021/01/18 02:22:00;;;;;;;0.10;0.10;;;;;;;0.95;100.00;100458.38;4943630;28;20246;-77
2021/01/18 02:25:13;;;;;;;0.20;0.20;;;;;;;0.82;100.00;100454.50;4940437;28;20194;-79
2021/01/18 02:28:42;;;;;;;0.20;0.20;;;;;;;0.67;100.00;100448.25;4946891;28;20227;-79
2021/01/18 02:32:20;;;;;;;0.20;0.20;;;;;;;0.57;100.00;100447.09;4944980;28;20382;-77
2021/01/18 02:35:48;;;;;;;0.30;0.30;;;;;;;0.44;100.00;100442.41;4945148;28;20049;-77
2021/01/18 02:39:02;;;;;;;0.20;0.20;;;;;;;0.31;100.00;100452.19;4937184;28;20361;-75
2021/01/18 02:42:11;;;;;;;0.32;0.32;;;;;;;0.24;100.00;100452.22;4944159;28;20058;-77
2021/01/18 02:45:16;;;;;;;0.10;0.10;;;;;;;0.15;100.00;100443.59;4946914;28;20050;-78
2021/01/18 02:48:21;;;;;;;0.30;0.30;;;;;;;0.06;100.00;100440.47;4948786;28;20715;-77
2021/01/18 02:51:28;;;;;;;0.30;0.30;;;;;;;-0.04;100.00;100442.00;4955284;28;20622;-79
2021/01/18 02:54:32;;;;;;;0.20;0.20;;;;;;;-0.12;100.00;100441.22;4940811;28;20551;-76
2021/01/18 02:57:40;;;;;;;0.40;0.40;;;;;;;-0.18;100.00;100440.06;4949383;28;20034;-77
2021/01/18 03:00:52;;;;;;;0.30;0.30;;;;;;;-0.19;100.00;100434.94;4953371;28;20438;-78
2021/01/18 03:04:05;;;;;;;0.20;0.20;;;;;;;-0.22;100.00;100431.03;4930601;28;20073;-76
2021/01/18 03:07:14;;;;;;;0.30;0.30;;;;;;;-0.27;100.00;100428.69;4946292;28;20478;-75
2021/01/18 03:10:43;;;;;;;0.30;0.30;;;;;;;-0.32;100.00;100425.53;4950007;28;20142;-77
2021/01/18 03:13:56;;;;;;;0.30;0.30;;;;;;;-0.35;100.00;100426.34;4949604;28;20284;-76
2021/01/18 03:17:00;;;;;;;0.30;0.30;;;;;;;-0.37;100.00;100425.94;4949545;28;20299;-78
2021/01/18 03:20:05;;;;;;;0.30;0.30;;;;;;;-0.32;100.00;100431.00;4931068;28;20369;-77
2021/01/18 03:23:09;;;;;;;0.30;0.30;;;;;;;-0.23;100.00;100424.00;4934841;28;20799;-77
2021/01/18 03:26:13;;;;;;;0.10;0.10;;;;;;;-0.12;100.00;100413.84;4949297;28;20404;-76
2021/01/18 03:29:16;;;;;;;0.20;0.20;;;;;;;0.03;100.00;100420.13;4934923;28;20042;-77
2021/01/18 03:32:20;;;;;;;0.40;0.40;;;;;;;0.17;100.00;100419.34;4934888;28;21303;-77
2021/01/18 03:35:23;;;;;;;0.20;0.20;;;;;;;0.25;100.00;100408.00;4946617;28;20041;-76
2021/01/18 03:38:27;;;;;;;0.30;0.30;;;;;;;0.33;100.00;100411.50;4935391;28;20064;-78
2021/01/18 03:41:30;;;;;;;0.20;0.20;;;;;;;0.42;100.00;100403.66;4938589;28;20053;-77
2021/01/18 03:44:35;;;;;;;0.20;0.20;;;;;;;0.51;100.00;100393.09;4933070;28;20046;-77
2021/01/18 03:47:43;;;;;;;0.20;0.20;;;;;;;0.60;100.00;100391.50;4938928;28;20076;-77
2021/01/18 03:50:49;;;;;;;0.20;0.20;;;;;;;0.67;100.00;100385.22;4948538;28;20210;-76
2021/01/18 03:53:52;;;;;;;0.20;0.20;;;;;;;0.76;100.00;100371.88;4935777;28;20253;-82
2021/01/18 03:56:56;;;;;;;0.10;0.10;;;;;;;0.86;100.00;100368.31;4939790;28;20053;-77
2021/01/18 04:00:00;;;;;;;0.20;0.20;;;;;;;0.92;100.00;100366.72;4939025;28;20446;-79
2021/01/18 04:03:04;;;;;;;0.28;0.28;;;;;;;1.02;100.00;100368.63;4942927;28;20157;-77
2021/01/18 04:06:08;;;;;;;0.28;0.28;;;;;;;1.16;100.00;100360.34;4940916;28;20372;-77
2021/01/18 04:09:12;;;;;;;0.30;0.30;;;;;;;1.28;100.00;100354.41;4938917;28;20696;-77
2021/01/18 04:12:15;;;;;;;0.30;0.30;;;;;;;1.39;100.00;100357.88;4939996;28;20218;-79
2021/01/18 04:15:22;;;;;;;0.30;0.30;;;;;;;1.47;100.00;100347.63;4936886;28;21147;-75
2021/01/18 04:18:26;;;;;;;0.20;0.20;;;;;;;1.57;100.00;100351.47;4936000;28;20687;-78
2021/01/18 04:21:30;;;;;;;0.10;0.10;;;;;;;1.68;100.00;100338.47;4938412;28;20046;-77
2021/01/18 04:24:33;;;;;;;0.10;0.10;;;;;;;1.84;100.00;100341.50;4936142;28;20423;-78
2021/01/18 04:27:37;;;;;;;0.17;0.17;;;;;;;1.92;100.00;100329.25;4940248;28;20069;-78
2021/01/18 04:30:41;;;;;;;0.10;0.10;;;;;;;1.93;100.00;100326.09;4938935;28;20049;-77
2021/01/18 04:33:44;;;;;;;0.10;0.10;;;;;;;1.91;100.00;100330.44;4936050;28;20049;-78
2021/01/18 04:36:48;;;;;;;0.13;0.13;;;;;;;1.91;100.00;100328.47;4936971;28;20128;-77
2021/01/18 04:39:52;;;;;;;0.10;0.10;;;;;;;1.89;100.00;100324.56;4946212;28;20747;-76
2021/01/18 04:42:56;;;;;;;0.10;0.10;;;;;;;1.91;100.00;100327.69;4937708;28;20053;-78
2021/01/18 04:46:02;;;;;;;0.10;0.10;;;;;;;1.95;100.00;100322.97;4940779;28;20061;-77
2021/01/18 04:49:07;;;;;;;0.20;0.20;;;;;;;2.09;100.00;100322.81;4938475;28;20276;-75
2021/01/18 04:52:17;;;;;;;0.10;0.10;;;;;;;2.28;100.00;100314.00;4937988;28;20957;-79
2021/01/18 04:55:42;;;;;;;0.10;0.10;;;;;;;2.41;100.00;100317.78;4935424;28;20592;-79
2021/01/18 04:58:48;;;;;;;0.10;0.10;;;;;;;2.39;100.00;100314.66;4939852;28;20416;-77
2021/01/18 05:02:05;;;;;;;0.10;0.10;;;;;;;2.42;100.00;100319.34;4942753;28;20333;-76
2021/01/18 05:05:28;;;;;;;0.20;0.20;;;;;;;2.51;100.00;100308.66;4942783;28;20073;-79
2021/01/18 05:08:50;;;;;;;;;;;;;;;2.66;100.00;100315.56;4964314;28;20231;-83
2021/01/18 05:11:55;;;;;;;0.20;0.20;;;;;;;2.81;100.00;100314.19;4965604;28;20718;-83
2021/01/18 05:14:59;;;;;;;0.20;0.20;;;;;;;2.92;100.00;100309.31;4963647;28;20461;-82
2021/01/18 05:18:06;;;;;;;0.10;0.10;;;;;;;2.97;100.00;100306.09;4977274;28;20049;-83
2021/01/18 05:21:10;;;;;;;0.20;0.20;;;;;;;3.10;100.00;100311.81;4965452;28;20066;-85
2021/01/18 05:24:16;;;;;;;0.10;0.10;;;;;;;3.15;100.00;100302.34;4973615;28;20092;-84
2021/01/18 05:27:19;;;;;;;0.10;0.10;;;;;;;3.21;100.00;100292.41;4970421;28;20046;-82
2021/01/18 05:30:23;;;;;;;0.10;0.10;;;;;;;3.23;100.00;100290.06;4966392;28;20056;-82
2021/01/18 05:33:27;;;;;;;0.10;0.10;;;;;;;3.17;100.00;100302.69;4968083;28;20364;-81
2021/01/18 05:36:52;;;;;;;0.20;0.20;;;;;;;3.10;100.00;100303.56;4973293;28;20053;-81
2021/01/18 05:39:56;;;;;;;0.10;0.10;;;;;;;3.21;100.00;100297.91;4963419;28;20761;-82
2021/01/18 05:43:01;;;;;;;0.10;0.10;;;;;;;3.26;100.00;100297.47;4964212;28;20444;-83
2021/01/18 05:46:07;;;;;;;0.10;0.00;;;;;;;3.24;100.00;100297.09;4963652;28;20255;-82
2021/01/18 05:49:16;;;;;;;0.10;0.00;;;;;;;3.23;100.00;100299.06;4974265;28;20159;-83
2021/01/18 05:52:30;;;;;;;0.10;0.10;;;;;;;3.16;100.00;100303.91;4964726;28;20202;-82
2021/01/18 05:55:33;;;;;;;0.10;0.10;;;;;;;3.03;100.00;100306.44;4964798;28;20041;-81
2021/01/18 05:58:37;;;;;;;0.20;0.20;;;;;;;2.82;100.00;100299.22;4962331;28;20248;-83
2021/01/18 06:01:40;;;;;;;0.20;0.20;;;;;;;2.65;100.00;100297.47;4967164;28;20720;-81
2021/01/18 06:04:44;;;;;;;0.20;0.20;;;;;;;2.57;100.00;100292.47;4964801;28;20049;-82
2021/01/18 06:07:50;;;;;;;0.20;0.20;;;;;;;2.42;100.00;100299.31;4964536;28;20166;-82
2021/01/18 06:10:55;;;;;;;0.20;0.20;;;;;;;2.26;100.00;100299.88;4959896;28;21268;-80
2021/01/18 06:14:04;;;;;;;0.10;0.10;;;;;;;2.27;100.00;100290.47;4972398;28;20285;-82
2021/01/18 06:17:08;;;;;;;0.10;0.10;;;;;;;2.25;100.00;100292.84;4964771;28;20048;-81
2021/01/18 06:20:20;;;;;;;0.10;0.10;;;;;;;2.32;100.00;100290.00;4961407;28;20803;-82
2021/01/18 06:23:24;;;;;;;0.10;0.10;;;;;;;2.31;100.00;100291.19;4960949;28;20064;-82
2021/01/18 06:26:36;;;;;;;0.20;0.20;;;;;;;2.24;100.00;100302.25;4968831;28;20061;-83
2021/01/18 06:29:42;;;;;;;0.20;0.20;;;;;;;2.23;100.00;100295.97;4967379;28;20057;-83
2021/01/18 06:32:49;;;;;;;0.10;0.10;;;;;;;2.20;100.00;100296.81;4965806;28;20564;-81
2021/01/18 06:36:09;;;;;;;0.10;0.10;;;;;;;2.12;100.00;100295.31;4957265;28;20053;-80
2021/01/18 06:39:13;;;;;;;0.20;0.20;;;;;;;2.09;100.00;100292.59;4957098;28;20835;-80
2021/01/18 06:42:21;;;;;;;0.20;0.20;;;;;;;2.13;100.00;100301.59;4958742;28;20387;-80
2021/01/18 06:45:40;;;;;;;0.10;0.10;;;;;;;2.18;100.00;100298.41;4959107;28;20621;-81
2021/01/18 06:48:46;;;;;;;0.10;0.10;;;;;;;2.13;100.00;100301.59;4962742;28;20287;-82
2021/01/18 06:51:52;;;;;;;0.20;0.20;;;;;;;2.11;100.00;100292.97;4963665;28;20569;-79
2021/01/18 06:55:01;;;;;;;0.10;0.08;;;;;;;2.06;100.00;100301.66;4962852;28;20521;-82
2021/01/18 06:58:31;;;;;;;0.20;0.20;;;;;;;1.96;100.00;100297.03;4968896;28;20256;-78
2021/01/18 07:01:39;;;;;;;0.10;0.10;;;;;;;1.94;100.00;100294.72;4958084;28;20072;-78
2021/01/18 07:04:47;;;;;;;0.25;0.25;;;;;;;1.89;100.00;100292.41;4959355;28;20412;-81
2021/01/18 07:07:56;;;;;;;0.20;0.20;;;;;;;1.81;100.00;100287.38;4971622;28;20275;-82
2021/01/18 07:11:09;;;;;;;0.17;0.17;;;;;;;1.66;100.00;100288.69;4972919;28;20057;-81
2021/01/18 07:14:13;;;;;;;0.20;0.20;;;;;;;1.59;100.00;100286.78;4968803;28;20255;-81
2021/01/18 07:17:18;;;;;;;0.20;0.20;;;;;;;1.61;100.00;100286.34;4960019;28;20081;-81
2021/01/18 07:20:28;;;;;;;0.13;0.13;;;;;;;1.67;100.00;100287.50;4975012;28;20717;-80
2021/01/18 07:23:38;;;;;;;0.40;0.40;;;;;;;1.74;100.00;100296.44;4962418;28;20290;-84
2021/01/18 07:26:59;;;;;;;0.20;0.20;;;;;;;1.75;100.00;100281.56;4961165;28;20057;-80
2021/01/18 07:30:03;;;;;;;0.10;0.10;;;;;;;1.80;100.00;100289.34;4967352;28;20102;-78
2021/01/18 07:33:14;;;;;;;0.10;0.10;;;;;;;1.77;100.00;100289.38;4957562;28;21075;-78
2021/01/18 07:36:27;;;;;;;0.10;0.10;;;;;;;1.82;100.00;100292.44;4956006;28;20294;-79
2021/01/18 07:39:40;;;;;;;0.10;0.10;;;;;;;1.92;100.00;100297.09;4958746;28;20049;-80
2021/01/18 07:42:44;;;;;;;0.10;0.10;;;;;;;1.92;100.00;100291.59;4956340;28;20068;-77
2021/01/18 07:45:47;;;;;;;0.13;0.13;;;;;;;1.88;100.00;100293.59;4957208;28;20396;-77
2021/01/18 07:48:57;;;;;;;0.10;0.10;;;;;;;1.95;100.00;100292.75;4958123;28;20458;-77
2021/01/18 07:52:40;;;;;;;0.10;0.10;;;;;;;2.11;100.00;100292.97;4956983;28;20041;-78
2021/01/18 07:55:43;;;;;;;0.10;0.10;;;;;;;2.14;100.00;100283.94;4901356;29;20660;-78
2021/01/18 07:58:59;;;;;;;0.10;0.10;;;;;;;2.04;100.00;100288.31;4900798;28;20578;-78
2021/01/18 08:02:02;;;;;;;0.20;0.20;;;;;;;1.90;100.00;100282.19;4960932;28;20049;-79
2021/01/18 08:05:32;;;;;;;0.10;0.10;;;;;;;1.78;100.00;100285.44;4958192;28;20373;-78
2021/01/18 08:08:36;;;;;;;0.20;0.20;;;;;;;1.77;100.00;100289.38;4963817;28;21139;-80
2021/01/18 08:11:39;;;;;;;0.10;0.00;;;;;;;1.88;100.00;100287.31;4958578;28;20080;-79
2021/01/18 08:14:49;;;;;;;0.20;0.20;;;;;;;1.89;100.00;100281.41;4957021;28;20163;-80
2021/01/18 08:18:24;;;;;;;0.30;0.30;;;;;;;1.84;100.00;100281.09;4965831;28;20582;-79
2021/01/18 08:21:34;;;;;;;0.10;0.10;;;;;;;1.79;100.00;100287.00;4966196;28;21062;-79
2021/01/18 08:24:37;;;;;;;0.20;0.20;;;;;;;1.76;100.00;100283.09;4956173;28;20566;-79
2021/01/18 08:27:46;;;;;;;0.15;0.15;;;;;;;1.82;100.00;100286.97;4962171;28;20126;-82
2021/01/18 08:30:55;;;;;;;0.30;0.30;;;;;;;1.89;100.00;100286.13;4957235;28;20234;-82
2021/01/18 08:34:11;;;;;;;0.20;0.20;;;;;;;1.95;100.00;100282.53;4959019;28;20929;-79
2021/01/18 08:37:15;;;;;;;0.10;0.10;;;;;;;1.98;100.00;100284.47;4965794;28;20573;-81
2021/01/18 08:40:18;;;;;;;0.10;0.10;;;;;;;2.01;100.00;100277.38;4952411;28;20066;-82
2021/01/18 08:43:22;;;;;;;0.10;0.10;;;;;;;2.10;100.00;100285.94;4953602;28;20054;-82
2021/01/18 08:46:38;;;;;;;0.20;0.20;;;;;;;2.14;100.00;100276.44;4964363;28;20124;-81
2021/01/18 08:49:42;;;;;;;0.20;0.20;;;;;;;2.15;100.00;100269.78;4954526;28;20697;-83
2021/01/18 08:52:59;;;;;;;0.10;0.10;;;;;;;2.15;100.00;100277.22;4956693;28;21277;-81
2021/01/18 08:56:04;;;;;;;0.10;0.10;;;;;;;2.15;100.00;100269.00;4959863;28;20278;-85
2021/01/18 08:59:15;;;;;;;0.20;0.20;;;;;;;2.09;100.00;100285.16;4956284;28;20471;-81
2021/01/18 09:02:18;;;;;;;0.10;0.10;;;;;;;2.19;100.00;100272.47;4960082;28;20050;-82
2021/01/18 09:05:22;;;;;;;0.10;0.10;;;;;;;2.18;100.00;100276.44;4959904;28;20053;-80
2021/01/18 09:08:28;;;;;;;0.17;0.17;;;;;;;2.25;100.00;100270.88;4981063;28;20057;-84
2021/01/18 09:11:32;;;;;;;0.10;0.10;;;;;;;2.32;100.00;100270.75;4981872;28;20549;-84
2021/01/18 09:14:37;;;;;;;0.10;0.10;;;;;;;2.34;100.00;100279.38;4960883;28;20476;-82
2021/01/18 09:17:40;;;;;;;0.20;0.20;;;;;;;2.41;100.00;100273.81;4979771;28;20072;-84
2021/01/18 09:20:46;;;;;;;0.10;0.10;;;;;;;2.52;100.00;100268.97;4980512;28;21105;-85
2021/01/18 09:23:50;;;;;;;0.10;0.10;;;;;;;2.61;100.00;100271.22;4978385;28;20319;-83
2021/01/18 09:26:53;;;;;;;0.10;0.10;;;;;;;2.68;100.00;100271.94;4978954;28;20437;-81
2021/01/18 09:30:11;;;;;;;0.10;0.10;;;;;;;2.73;100.00;100268.69;4963735;28;20041;-82
2021/01/18 09:33:15;;;;;;;0.10;0.10;;;;;;;2.73;100.00;100271.44;4980768;28;20045;-83
2021/01/18 09:36:22;;;;;;;0.10;0.10;;;;;;;2.71;100.00;100276.59;4980477;28;21091;-83
2021/01/18 09:39:26;;;;;;;0.10;0.10;;;;;;;2.67;100.00;100275.06;4969910;28;20049;-82
2021/01/18 09:42:31;;;;;;;0.17;0.17;;;;;;;2.64;100.00;100275.91;4964110;28;20049;-81
2021/01/18 09:45:36;;;;;;;0.10;0.10;;;;;;;2.67;100.00;100267.59;4976365;28;20725;-84
2021/01/18 09:48:40;;;;;;;0.10;0.10;;;;;;;2.73;100.00;100271.44;4960780;28;20079;-83
2021/01/18 09:51:43;;;;;;;0.15;0.15;;;;;;;2.84;100.00;100268.56;4972452;28;20514;-79
2021/01/18 09:54:51;;;;;;;0.10;0.10;;;;;;;2.94;100.00;100268.44;4968836;28;20057;-82
2021/01/18 09:58:06;;;;;;;0.10;0.10;;;;;;;3.07;100.00;100261.16;4959491;28;20330;-83
2021/01/18 10:01:15;;;;;;;0.10;0.10;;;;;;;3.15;100.00;100272.06;4966456;28;20056;-81
2021/01/18 10:04:23;;;;;;;0.15;0.15;;;;;;;3.14;100.00;100273.28;4968328;28;20049;-81
2021/01/18 10:07:28;;;;;;;0.10;0.10;;;;;;;3.19;100.00;100264.53;4972284;28;20831;-83
2021/01/18 10:10:43;;;;;;;0.10;0.10;;;;;;;3.30;100.00;100267.91;4959339;28;20152;-82
2021/01/18 10:14:00;;;;;;;0.10;0.10;;;;;;;3.36;100.00;100260.72;4974788;28;20326;-84
2021/01/18 10:17:06;;;;;;;0.10;0.10;;;;;;;3.37;100.00;100252.09;4973657;28;20073;-84
2021/01/18 10:20:11;;;;;;;0.10;0.10;;;;;;;3.33;100.00;100258.84;4974029;28;20057;-85
2021/01/18 10:23:15;;;;;;;0.10;0.10;;;;;;;3.32;100.00;100260.81;4966101;28;20321;-81
2021/01/18 10:26:25;;;;;;;0.10;0.10;;;;;;;3.32;100.00;100262.78;4987719;28;20057;-84
2021/01/18 10:29:29;;;;;;;0.10;0.10;;;;;;;3.24;100.00;100251.09;4978155;28;20652;-83
2021/01/18 10:32:44;;;;;;;0.15;0.15;;;;;;;3.21;100.00;100254.66;4991596;28;20260;-79
2021/01/18 10:35:47;;;;;;;0.10;0.10;;;;;;;3.18;100.00;100254.75;4984421;28;20364;-82
2021/01/18 10:38:51;;;;;;;0.10;0.10;;;;;;;3.18;100.00;100249.22;4971176;28;20329;-81
2021/01/18 10:42:13;;;;;;;0.10;0.10;;;;;;;3.09;100.00;100258.00;4969447;28;20163;-81
2021/01/18 10:45:19;;;;;;;0.10;0.10;;;;;;;3.11;100.00;100249.34;4969763;28;20814;-85
2021/01/18 10:48:32;;;;;;;0.10;0.10;;;;;;;3.17;100.00;100242.94;4982729;28;20049;-84
2021/01/18 10:51:35;;;;;;;0.10;0.10;;;;;;;3.30;100.00;100243.13;4983583;28;20084;-80
2021/01/18 10:54:40;;;;;;;0.10;0.10;;;;;;;3.35;100.00;100234.41;4995963;28;20052;-87
2021/01/18 10:57:47;;;;;;;0.10;0.10;;;;;;;3.48;100.00;100236.19;4989427;28;20056;-83
2021/01/18 11:00:51;;;;;;;0.10;0.10;;;;;;;3.56;100.00;100226.59;4995778;28;20326;-82
2021/01/18 11:04:02;;;;;;;0.20;0.20;;;;;;;3.69;100.00;100237.78;4977493;28;21463;-80
2021/01/18 11:07:09;;;;;;;0.10;0.10;;;;;;;3.74;100.00;100231.81;4986567;28;21090;-81
2021/01/18 11:10:13;;;;;;;0.10;0.10;;;;;;;3.80;100.00;100227.38;4986524;28;20649;-81
2021/01/18 11:13:18;;;;;;;0.10;0.00;;;;;;;3.93;100.00;100222.00;4986562;28;20628;-79
2021/01/18 11:16:21;;;;;;;0.10;0.10;;;;;;;3.93;100.00;100222.00;4988060;28;20052;-80
2021/01/18 11:19:25;;;;;;;0.10;0.00;;;;;;;3.94;100.00;100218.84;4986510;28;20344;-80
2021/01/18 11:22:29;;;;;;;0.10;0.10;;;;;;;4.01;100.00;100209.66;4974607;28;20173;-80
2021/01/18 11:25:32;;;;;;;0.10;0.10;;;;;;;4.10;100.00;100210.66;4968528;28;20712;-81
2021/01/18 11:28:36;;;;;;;0.15;0.15;;;;;;;4.16;100.00;100208.22;4968709;28;20041;-81
2021/01/18 11:31:41;;;;;;;0.10;0.10;;;;;;;4.20;100.00;100198.63;4969599;28;20053;-82
2021/01/18 11:34:45;;;;;;;0.10;0.10;;;;;;;4.30;100.00;100203.19;4976200;28;21149;-81
2021/01/18 11:37:48;;;;;;;0.10;0.10;;;;;;;4.39;100.00;100189.63;4981665;28;20259;-81
2021/01/18 11:40:52;;;;;;;0.10;0.10;;;;;;;4.47;100.00;100179.97;4961357;28;20257;-80
2021/01/18 11:43:56;;;;;;;0.10;0.10;;;;;;;4.57;100.00;100184.47;4970992;28;20293;-82
2021/01/18 11:47:02;;;;;;;0.10;0.10;;;;;;;4.65;100.00;100181.59;4987394;28;20048;-84
2021/01/18 11:50:10;;;;;;;0.10;0.10;;;;;;;4.72;100.00;100167.63;4969962;28;20134;-80
2021/01/18 11:53:17;;;;;;;0.10;0.10;;;;;;;4.79;100.00;100162.72;4970951;28;20296;-84
2021/01/18 11:56:29;;;;;;;0.10;0.00;;;;;;;4.87;100.00;100168.88;4967993;28;20061;-82
2021/01/18 11:59:32;;;;;;;0.10;0.00;;;;;;;4.92;100.00;100155.31;4970457;28;20200;-82
2021/01/18 12:02:36;;;;;;;0.10;0.10;;;;;;;4.97;100.00;100156.78;4971775;28;22896;-82
2021/01/18 12:05:40;;;;;;;0.10;0.10;;;;;;;4.99;100.00;100143.34;4968334;28;20053;-82
2021/01/18 12:08:43;;;;;;;0.10;0.10;;;;;;;4.97;100.00;100143.00;4969220;28;20061;-82
2021/01/18 12:11:47;;;;;;;0.10;0.00;;;;;;;4.95;100.00;100139.91;4967240;28;20052;-82
2021/01/18 12:14:51;;;;;;;0.10;0.00;;;;;;;4.93;100.00;100145.06;4969710;28;20875;-86
2021/01/18 12:17:54;;;;;;;0.10;0.10;;;;;;;4.92;100.00;100138.78;4977499;28;20072;-87
2021/01/18 12:20:58;;;;;;;0.10;0.10;;;;;;;4.90;100.00;100143.16;4964616;28;20116;-85
2021/01/18 12:24:01;;;;;;;0.10;0.10;;;;;;;4.86;100.00;100139.72;4981853;28;20727;-87
2021/01/18 12:27:05;;;;;;;0.10;0.10;;;;;;;4.81;100.00;100120.94;4989339;28;20276;-88
2021/01/18 12:30:09;;;;;;;0.10;0.10;;;;;;;4.78;100.00;100132.81;4994526;28;20453;-84
2021/01/18 12:33:13;;;;;;;0.10;0.10;;;;;;;4.71;100.00;100122.72;4997257;28;20689;-87
2021/01/18 12:36:16;;;;;;;0.10;0.10;;;;;;;4.70;100.00;100123.16;4985025;28;20732;-86
2021/01/18 12:39:19;;;;;;;0.10;0.10;;;;;;;4.69;100.00;100110.56;4977927;28;20252;-79
2021/01/18 12:42:23;;;;;;;0.10;0.10;;;;;;;4.71;100.00;100108.13;4996452;28;20306;-90
2021/01/18 12:45:29;;;;;;;0.10;0.10;;;;;;;4.71;100.00;100099.88;4965707;28;20057;-86
2021/01/18 12:48:33;;;;;;;0.10;0.10;;;;;;;4.74;100.00;100091.53;4980968;28;20065;-85
2021/01/18 12:51:36;;;;;;;0.10;0.10;;;;;;;4.78;100.00;100094.97;4968042;28;20057;-89
2021/01/18 12:54:40;;;;;;;0.10;0.10;;;;;;;4.82;100.00;100089.34;4968319;28;20153;-80
2021/01/18 12:57:44;;;;;;;0.10;0.00;;;;;;;4.83;100.00;100079.88;4970936;28;20769;-82
2021/01/18 13:00:48;;;;;;;0.10;0.10;;;;;;;4.82;100.00;100075.56;4975362;28;20080;-80
2021/01/18 13:03:51;;;;;;;0.10;0.10;;;;;;;4.85;100.00;100066.44;4972081;28;20480;-81
2021/01/18 13:06:55;;;;;;;0.10;0.10;;;;;;;4.87;100.00;100053.78;4984354;28;20268;-81
2021/01/18 13:09:59;;;;;;;0.10;0.00;;;;;;;4.90;100.00;100049.34;4990336;28;20049;-85
2021/01/18 13:13:02;;;;;;;0.00;0.00;;;;;;;4.88;100.00;100041.50;4995838;28;20049;-84
2021/01/18 13:16:05;;;;;;;0.10;0.10;;;;;;;4.88;100.00;100033.22;4992097;28;20694;-82
2021/01/18 13:19:10;;;;;;;0.20;0.20;;;;;;;4.85;100.00;100027.81;4982714;28;20673;-86
2021/01/18 13:22:13;;;;;;;0.10;0.10;;;;;;;4.83;100.00;100021.94;4982403;28;20057;-82
2021/01/18 13:25:17;;;;;;;0.10;0.00;;;;;;;4.80;100.00;100020.03;4993556;28;20076;-82
2021/01/18 13:28:20;;;;;;;0.10;0.10;;;;;;;4.76;100.00;100014.63;4995331;28;20455;-87
2021/01/18 13:31:23;;;;;;;0.10;0.10;;;;;;;4.74;100.00;100006.00;4996517;28;20048;-80
2021/01/18 13:34:27;;;;;;;0.10;0.00;;;;;;;4.68;100.00;100002.19;4991901;28;20048;-81
2021/01/18 13:37:30;;;;;;;0.10;0.10;;;;;;;4.64;100.00;99996.00;5000962;28;20052;-86
2021/01/18 13:40:34;;;;;;;0.10;0.10;;;;;;;4.61;100.00;99994.88;4985401;28;20696;-83
2021/01/18 13:43:38;;;;;;;0.10;0.00;;;;;;;4.63;100.00;99985.41;4998477;28;20168;-87
2021/01/18 13:46:41;;;;;;;0.10;0.00;;;;;;;4.60;100.00;99979.56;4990215;28;20656;-84
2021/01/18 13:49:45;;;;;;;0.10;0.10;;;;;;;4.71;100.00;99976.53;5001602;28;20125;-84
2021/01/18 13:52:48;;;;;;;0.10;0.00;;;;;;;4.69;100.00;99954.13;5004712;28;20253;-83
2021/01/18 13:55:52;;;;;;;0.10;0.10;;;;;;;4.71;100.00;99953.66;5001568;28;20274;-86
2021/01/18 13:58:56;;;;;;;0.10;0.00;;;;;;;4.73;100.00;99937.47;4989020;28;20056;-85
2021/01/18 14:02:00;;;;;;;0.10;0.10;;;;;;;4.75;100.00;99948.84;4999373;28;20052;-88
2021/01/18 14:05:04;;;;;;;0.10;0.10;;;;;;;4.79;100.00;99946.75;4996163;28;20053;-85
2021/01/18 14:08:08;;;;;;;0.10;0.00;;;;;;;4.80;100.00;99943.59;4992781;28;20057;-74
2021/01/18 14:11:12;;;;;;;0.10;0.00;;;;;;;4.75;100.00;99935.03;4982262;28;21077;-78
2021/01/18 14:14:15;;;;;;;0.10;0.00;;;;;;;4.78;100.00;99928.66;4975110;28;20077;-81
2021/01/18 14:17:23;;;;;;;0.10;0.10;;;;;;;4.85;100.00;99922.97;4984668;28;20368;-80
2021/01/18 14:20:27;;;;;;;0.10;0.10;;;;;;;4.88;100.00;99919.31;4981780;28;20184;-77
2021/01/18 14:23:30;;;;;;;0.10;0.00;;;;;;;4.88;100.00;99919.31;4980428;28;20060;-77
2021/01/18 14:26:37;;;;;;;0.10;0.10;;;;;;;4.91;100.00;99922.00;4995725;28;20045;-77
2021/01/18 14:29:41;;;;;;;0.10;0.10;;;;;;;4.93;100.00;99908.53;4992417;28;20698;-77
2021/01/18 14:32:47;;;;;;;0.10;0.00;;;;;;;5.02;100.00;99899.63;4989413;28;20068;-78